Flight Track Log - Related Links

Times and Time Zones

All times are in EDT time to prevent confusion due to time zone crossing. See the SWA378 flight status page for this flight to view local times or setup timezone preferences in your user account.


Time Position Orientation Groundspeed Altitude Reporting Facility
EDT Latitude Longitude Course Direction KTS MPH feet Rate Location/Type
Thu 10:18:24 PM 39.1833 -76.7167 207° Southwest 170 196 2,000  Level Potomac TRACON
Thu 10:19:24 PM 39.1333 -76.7500 207° Southwest 245 282 4,700 2,600 Climbing Potomac TRACON
Thu 10:20:24 PM 39.1333 -76.6500 90° East 308 354 7,200 2,640 Climbing Potomac TRACON
Thu 10:22:19 PM 39.1356 -76.4478 89° East 324 373 12,400 2,671 Climbing Washington Center
Thu 10:23:17 PM 39.1425 -76.3089 86° East 356 410 14,900 2,773 Climbing Washington Center
Thu 10:24:18 PM 39.1600 -76.1617 81° East 392 451 17,900 2,852 Climbing Washington Center
Thu 10:25:19 PM 39.1794 -76.0092 81° East 420 483 20,700 2,508 Climbing Washington Center
Thu 10:26:20 PM 39.2111 -75.8594 75° East 427 491 23,000 2,390 Climbing Washington Center
Thu 10:27:17 PM 39.2967 -75.7472 45° Northeast 416 479 25,400 2,667 Climbing Washington Center
Thu 10:28:17 PM 39.3844 -75.6344 45° Northeast 424 488 28,200 1,385 Climbing Washington Center
Thu 10:29:53 PM 39.5200 -75.4592 45° Northeast 433 498 29,000 306 Climbing New York Center
Thu 10:30:54 PM 39.6058 -75.3461 45° Northeast 433 498 29,000  Level New York Center
Thu 10:31:54 PM 39.6981 -75.2228 46° Northeast 438 504 29,000  Level New York Center
Thu 10:32:53 PM 39.7789 -75.1225 44° Northeast 438 504 29,000  Level New York Center
Thu 10:33:53 PM 39.8683 -75.0117 44° Northeast 438 504 29,000  Level New York Center
Thu 10:34:53 PM 39.9686 -74.8933 42° Northeast 438 504 29,000  Level New York Center
Thu 10:35:55 PM 40.0511 -74.7950 42° Northeast 438 504 29,000  Level New York Center
Thu 10:36:55 PM 40.1403 -74.6836 44° Northeast 438 504 29,000  Level New York Center
Thu 10:37:53 PM 40.2294 -74.5717 44° Northeast 433 498 29,000  Level New York Center
Thu 10:38:53 PM 40.3231 -74.4514 44° Northeast 433 498 29,000  Level New York Center
Thu 10:39:53 PM 40.4119 -74.3364 45° Northeast 433 498 29,000  Level New York Center
Thu 10:40:54 PM 40.5006 -74.2292 43° Northeast 433 498 29,000 -99 Level New York Center
Thu 10:41:54 PM 40.5872 -74.1186 44° Northeast 433 498 28,800 -915 Descending New York Center
Thu 10:42:52 PM 40.6733 -74.0108 43° Northeast 433 498 27,200 -1,433 Descending New York Center
Thu 10:45:15 PM 40.8711 -73.7686 43° Northeast 414 476 24,000 -1,182 Descending Boston Center
Thu 10:46:15 PM 40.9411 -73.6739 46° Northeast 398 458 23,200 -500 Descending Boston Center
Thu 10:47:15 PM 41.0481 -73.6014 27° Northeast 382 440 23,000 -250 Descending Boston Center
Thu 10:48:15 PM 41.1522 -73.6200 352° North 360 414 22,700 -650 Descending Boston Center
Thu 10:49:15 PM 41.2603 -73.6331 355° North 370 426 21,700 -1,000 Descending Boston Center
Thu 10:50:15 PM 41.3686 -73.6461 355° North 380 437 20,700 -1,000 Descending Boston Center
Thu 10:51:15 PM 41.4769 -73.6564 356° North 386 444 19,700 -950 Descending Boston Center
Thu 10:52:15 PM 41.5683 -73.6692 354° North 381 438 18,800 -1,000 Descending Boston Center
Thu 10:53:15 PM 41.6828 -73.6853 354° North 375 432 17,700 -1,050 Descending Boston Center
Thu 10:54:15 PM 41.7744 -73.6956 355° North 370 426 16,700 -1,250 Descending Boston Center
Thu 10:55:15 PM 41.8847 -73.7089 355° North 370 426 15,200 -1,962 Descending Boston Center
Thu 10:55:59 PM 41.9617 -73.7189 354° North 354 407 13,300 -2,300 Descending Boston Center
Thu 10:56:15 PM 41.9722 -73.7189 360° North 358 412 12,900 -2,291 Descending Boston Center
Thu 10:56:54 PM 42.0492 -73.7289 354° North 344 396 11,200 -1,800 Descending Boston Center
Thu 10:57:15 PM 42.0658 -73.7292 359° North 343 395 11,100 -200 Descending Boston Center
Thu 10:57:54 PM 42.1325 -73.7392 354° North 293 337 11,000 -100 Descending Boston Center
Thu 10:58:15 PM 42.1553 -73.7394 359° North 307 353 11,000 -885 Level Boston Center
Thu 10:58:55 PM 42.2011 -73.7489 351° North 233 268 10,100 -1,600 Descending Boston Center
Thu 10:59:15 PM 42.2178 -73.7464 North 259 298 9,400 -1,869 Descending Boston Center
Thu 10:59:56 PM 42.2781 -73.7561 353° North 270 311 8,200 -1,600 Descending Boston Center
Thu 11:00:15 PM 42.3011 -73.7567 359° North 259 298 7,800 -1,400 Descending Boston Center
Thu 11:00:56 PM 42.3508 -73.7661 352° North 269 310 6,800 -1,400 Descending Boston Center
Thu 11:01:15 PM 42.3678 -73.7636 North 259 298 6,400 -1,475 Descending Boston Center
Thu 11:01:57 PM 42.4217 -73.7733 352° North 260 299 5,300 -1,600 Descending Boston Center
Thu 11:02:15 PM 42.4467 -73.7767 354° North 259 298 4,800 -1,574 Descending Boston Center
Thu 11:02:58 PM 42.4989 -73.7833 355° North 259 298 3,700 -1,417 Descending Boston Center
Thu 11:03:27 PM 42.5319 -73.7869 355° North 254 292 3,100 -1,300 Descending Boston Center
Thu 11:03:58 PM 42.5717 -73.7933 353° North 257 296 2,400 -900 Descending Boston Center
Thu 11:04:27 PM 42.6008 -73.7969 355° North 254 292 2,200 -393 Descending Boston Center
Thu 11:04:59 PM 42.6319 -73.8003 355° North 212 244 2,000 -200 Descending Boston Center
Thu 11:05:27 PM 42.6611 -73.8094 347° North 254 292 2,000 -500 Level Boston Center
Thu 11:05:59 PM 42.6756 -73.8042 15° North 141 162 1,500 21,000 Descending Boston Center
Thu 11:06:27 PM 42.7297 -73.8250 344° North 254 292 23,000 -689 Climbing Boston Center
Thu 11:07:00 PM 42.7131 -73.8078 143° Southeast 132 152 800  Descending Boston Center
Thu 11:07:27 PM 42.7961 -73.8406 344° North 254 292 23,000 15,310 Climbing Boston Center
Thu 11:08:27 PM 42.8647 -73.8564 350° North 254 292 23,000  Level Boston Center
Thu 11:09:27 PM 42.8772 -73.8594 350° North 254 292 23,000  Level Boston Center
Thu 11:10:27 PM 42.8772 -73.8594 304° West 254 292 23,000  Level Boston Center

Login

Don't have an account? Register now (free) for customized features, flight alerts, and more!